Time;durP1;ratioP1;P1;durP2;ratioP2;P2;SDS_P1;SDS_P2;PMS_P1;PMS_P2;Temp;Humidity;BMP_temperature;BMP_pressure;BME280_temperature;BME280_humidity;BME280_pressure;Samples;Min_cycle;Max_cycle;Signal;HPM_P1;HPM_P2
2024/01/20 00:00:16;;;;;;;0.95;0.95;;;;;;;-4.21;82.63;98332.13;4991895;28;20053;-72
2024/01/20 00:02:44;;;;;;;1.45;1.45;;;;;;;-4.17;82.54;98329.28;4995796;28;20089;-74
2024/01/20 00:05:12;;;;;;;1.02;1.02;;;;;;;-4.11;82.21;98326.31;4995905;28;20054;-74
2024/01/20 00:07:40;;;;;;;1.13;1.13;;;;;;;-4.08;82.56;98318.34;4997208;28;20056;-73
2024/01/20 00:10:11;;;;;;;1.55;1.55;;;;;;;-4.16;82.38;98324.91;4990946;28;20142;-72
2024/01/20 00:12:41;;;;;;;0.47;0.47;;;;;;;-4.16;82.52;98312.72;4996071;28;20480;-71
2024/01/20 00:15:11;;;;;;;1.05;1.05;;;;;;;-4.21;82.29;98324.31;4997601;28;20076;-72
2024/01/20 00:17:40;;;;;;;0.40;0.40;;;;;;;-4.24;82.54;98335.75;5000142;28;20062;-72
2024/01/20 00:20:09;;;;;;;1.20;1.20;;;;;;;-4.27;82.75;98337.69;4995228;28;20121;-72
2024/01/20 00:22:38;;;;;;;0.88;0.88;;;;;;;-4.13;82.73;98329.94;4995105;28;20100;-72
2024/01/20 00:25:08;;;;;;;0.55;0.55;;;;;;;-4.16;82.79;98335.34;4989807;28;20445;-72
2024/01/20 00:27:37;;;;;;;1.77;1.77;;;;;;;-4.10;82.65;98329.78;5001220;28;20046;-72
2024/01/20 00:30:06;;;;;;;1.13;1.13;;;;;;;-4.12;83.14;98329.00;4996085;28;20083;-71
2024/01/20 00:32:36;;;;;;;0.95;0.95;;;;;;;-4.09;82.98;98336.66;4997128;28;20054;-71
2024/01/20 00:35:05;;;;;;;1.75;1.75;;;;;;;-4.08;82.83;98333.97;4991787;28;20116;-71
2024/01/20 00:37:35;;;;;;;0.30;0.30;;;;;;;-4.11;82.76;98328.09;4999164;28;20074;-71
2024/01/20 00:40:05;;;;;;;1.35;1.35;;;;;;;-4.08;83.10;98335.75;4990838;28;20164;-71
2024/01/20 00:42:32;;;;;;;0.35;0.35;;;;;;;-4.09;82.77;98315.81;4985957;28;20426;-71
2024/01/20 00:45:00;;;;;;;0.30;0.30;;;;;;;-4.05;83.07;98319.09;4995064;28;20052;-71
2024/01/20 00:47:28;;;;;;;1.10;1.10;;;;;;;-4.09;82.94;98323.63;4990128;28;20109;-71
2024/01/20 00:49:57;;;;;;;1.08;1.08;;;;;;;-4.04;82.91;98331.19;4989844;28;20664;-71
2024/01/20 00:52:24;;;;;;;1.20;1.20;;;;;;;-4.06;83.15;98339.13;4990915;28;20042;-71
2024/01/20 00:54:52;;;;;;;0.88;0.88;;;;;;;-4.06;83.07;98326.09;4995390;28;20135;-71
2024/01/20 00:57:20;;;;;;;1.33;1.33;;;;;;;-4.01;82.54;98333.63;4991378;28;20049;-71
2024/01/20 00:59:48;;;;;;;1.40;1.40;;;;;;;-3.99;82.75;98340.44;5003126;28;20513;-71
2024/01/20 01:02:18;;;;;;;1.50;1.40;;;;;;;-3.89;82.46;98343.38;5000274;28;20046;-71
2024/01/20 01:04:46;;;;;;;1.30;1.30;;;;;;;-3.97;82.29;98342.97;4985930;28;20050;-71
2024/01/20 01:07:15;;;;;;;1.00;1.00;;;;;;;-4.00;82.75;98335.31;4995077;28;20038;-71
2024/01/20 01:09:43;;;;;;;0.85;0.85;;;;;;;-4.04;82.52;98347.66;4995812;28;20049;-71
2024/01/20 01:12:10;;;;;;;0.98;0.98;;;;;;;-4.08;83.15;98344.41;4989172;28;20081;-72
2024/01/20 01:14:38;;;;;;;0.60;0.60;;;;;;;-3.99;82.99;98347.41;4992754;28;20408;-72
2024/01/20 01:17:06;;;;;;;1.27;1.27;;;;;;;-3.94;82.70;98348.81;4994229;28;20052;-73
2024/01/20 01:19:33;;;;;;;1.13;1.13;;;;;;;-3.97;82.63;98359.44;4994694;28;20129;-73
2024/01/20 01:22:01;;;;;;;0.32;0.32;;;;;;;-3.94;82.25;98353.19;4971350;28;20497;-73
2024/01/20 01:24:30;;;;;;;1.30;1.30;;;;;;;-3.95;82.61;98354.16;4970848;28;20058;-73
2024/01/20 01:26:57;;;;;;;1.08;1.08;;;;;;;-3.88;82.55;98371.13;4989565;28;20057;-73
2024/01/20 01:29:25;;;;;;;1.10;1.10;;;;;;;-3.87;82.25;98370.19;4999469;28;20038;-73
2024/01/20 01:31:52;;;;;;;1.17;1.17;;;;;;;-3.92;82.63;98362.63;4977397;28;20042;-73
2024/01/20 01:34:20;;;;;;;0.98;0.98;;;;;;;-3.81;81.96;98367.22;4990541;28;20113;-73
2024/01/20 01:36:48;;;;;;;1.08;1.08;;;;;;;-3.85;82.25;98376.16;4996689;28;20519;-73
2024/01/20 01:39:17;;;;;;;0.75;0.75;;;;;;;-3.87;82.49;98383.22;4992992;28;20050;-72
2024/01/20 01:41:47;;;;;;;0.95;0.95;;;;;;;-3.86;82.60;98393.56;5000559;28;20050;-73
2024/01/20 01:44:15;;;;;;;0.95;0.95;;;;;;;-3.80;82.69;98392.38;4998856;28;20045;-74
2024/01/20 01:46:42;;;;;;;0.88;0.88;;;;;;;-3.75;82.11;98396.44;4980705;28;20039;-74
2024/01/20 01:49:10;;;;;;;1.20;1.20;;;;;;;-3.70;81.69;98399.59;4998070;28;20069;-74
2024/01/20 01:51:38;;;;;;;1.42;1.42;;;;;;;-3.70;82.04;98398.75;4983036;28;20046;-74
2024/01/20 01:54:08;;;;;;;0.98;0.98;;;;;;;-3.72;81.88;98398.00;5000028;28;20053;-71
2024/01/20 01:56:35;;;;;;;1.05;1.05;;;;;;;-3.72;82.31;98401.44;4993157;28;20054;-72
2024/01/20 01:59:04;;;;;;;1.17;1.17;;;;;;;-3.64;81.70;98394.97;4992257;28;20057;-72
2024/01/20 02:01:32;;;;;;;0.75;0.75;;;;;;;-3.65;81.95;98391.53;4993385;28;20137;-72
2024/01/20 02:03:59;;;;;;;1.30;1.30;;;;;;;-3.73;82.29;98394.53;4984036;28;20053;-73
2024/01/20 02:06:27;;;;;;;1.35;1.35;;;;;;;-3.56;82.33;98398.00;4989718;28;20042;-72
2024/01/20 02:08:55;;;;;;;1.00;1.00;;;;;;;-3.64;81.46;98403.66;4993516;28;20046;-72
2024/01/20 02:11:23;;;;;;;0.90;0.90;;;;;;;-3.77;82.35;98397.44;5001084;28;20034;-72
2024/01/20 02:13:51;;;;;;;1.05;1.05;;;;;;;-3.66;82.17;98404.66;4987192;28;20070;-72
2024/01/20 02:16:20;;;;;;;1.33;1.33;;;;;;;-3.85;82.31;98394.41;5003937;28;20080;-72
2024/01/20 02:18:47;;;;;;;1.52;1.52;;;;;;;-3.87;82.91;98398.88;4993783;28;20085;-72
2024/01/20 02:21:15;;;;;;;1.13;1.13;;;;;;;-3.81;82.15;98401.97;4999465;28;20100;-72
2024/01/20 02:23:47;;;;;;;1.42;1.42;;;;;;;-3.89;81.72;98401.56;4982511;28;20043;-74
2024/01/20 02:26:15;;;;;;;0.88;0.88;;;;;;;-3.91;82.02;98407.78;4985811;28;20120;-74
2024/01/20 02:28:42;;;;;;;1.15;1.15;;;;;;;-3.92;82.18;98395.66;4995617;28;20064;-74
2024/01/20 02:31:10;;;;;;;1.02;1.02;;;;;;;-3.94;81.64;98398.34;4996398;28;20081;-75
2024/01/20 02:33:38;;;;;;;1.42;1.42;;;;;;;-3.93;81.99;98399.19;4993232;28;20050;-73
2024/01/20 02:36:06;;;;;;;0.30;0.30;;;;;;;-3.85;81.45;98404.84;5002137;28;20125;-73
2024/01/20 02:38:33;;;;;;;1.05;1.05;;;;;;;-3.91;81.88;98395.59;4999886;28;20134;-73
2024/01/20 02:41:02;;;;;;;1.17;1.17;;;;;;;-3.93;81.85;98400.03;5005593;28;20057;-72
2024/01/20 02:43:30;;;;;;;1.15;1.15;;;;;;;-3.99;81.92;98399.53;4988233;28;20049;-73
2024/01/20 02:45:57;;;;;;;1.20;1.20;;;;;;;-4.04;81.91;98393.72;4995232;28;20057;-73
2024/01/20 02:48:25;;;;;;;0.95;0.95;;;;;;;-4.08;82.28;98401.75;4998867;28;20035;-72
2024/01/20 02:50:53;;;;;;;0.98;0.98;;;;;;;-4.10;82.18;98407.94;4999116;28;20100;-73
2024/01/20 02:53:21;;;;;;;1.20;1.20;;;;;;;-4.13;82.08;98390.72;5000735;28;20049;-73
2024/01/20 02:55:48;;;;;;;1.20;1.20;;;;;;;-4.11;81.75;98401.91;4986419;28;20054;-69
2024/01/20 02:58:17;;;;;;;0.40;0.40;;;;;;;-4.21;82.34;98403.31;5006557;28;20041;-72
2024/01/20 03:00:45;;;;;;;1.00;1.00;;;;;;;-4.26;82.27;98414.94;4997629;28;20046;-71
2024/01/20 03:03:12;;;;;;;1.10;1.10;;;;;;;-4.18;82.10;98418.81;5000921;28;20065;-72
2024/01/20 03:05:40;;;;;;;1.20;1.20;;;;;;;-4.17;82.08;98412.66;4995273;28;20066;-72
2024/01/20 03:08:08;;;;;;;0.30;0.30;;;;;;;-4.24;82.14;98411.28;4992981;28;20049;-73
2024/01/20 03:10:36;;;;;;;1.27;1.27;;;;;;;-4.20;82.23;98419.78;5003003;28;20056;-72
2024/01/20 03:13:04;;;;;;;1.17;1.17;;;;;;;-4.27;82.49;98421.06;4993391;28;20046;-72
2024/01/20 03:15:32;;;;;;;1.55;1.55;;;;;;;-4.24;82.58;98423.47;4989839;28;20042;-72
2024/01/20 03:18:00;;;;;;;1.10;1.10;;;;;;;-4.22;81.52;98424.25;5000047;28;20121;-73
2024/01/20 03:20:28;;;;;;;1.08;1.08;;;;;;;-4.26;82.23;98425.34;5000883;28;20126;-75
2024/01/20 03:22:55;;;;;;;0.95;0.95;;;;;;;-4.24;81.79;98424.31;4988616;28;20125;-71
2024/01/20 03:25:23;;;;;;;1.20;1.20;;;;;;;-4.21;81.66;98421.56;4981935;28;20165;-72
2024/01/20 03:27:53;;;;;;;1.30;1.30;;;;;;;-4.33;81.76;98430.03;4987539;28;20046;-72
2024/01/20 03:30:21;;;;;;;0.32;0.32;;;;;;;-4.25;82.00;98429.59;4981488;28;20429;-73
2024/01/20 03:32:51;;;;;;;0.90;0.90;;;;;;;-4.12;81.07;98436.69;4999214;28;20053;-73
2024/01/20 03:35:18;;;;;;;1.33;1.33;;;;;;;-4.31;81.33;98432.56;4998475;28;20042;-72
2024/01/20 03:37:46;;;;;;;1.20;1.20;;;;;;;-4.48;82.04;98438.69;4993148;28;20053;-72
2024/01/20 03:40:14;;;;;;;1.10;1.10;;;;;;;-4.53;82.06;98446.72;4995435;28;20045;-72
2024/01/20 03:42:42;;;;;;;1.13;1.13;;;;;;;-4.49;81.98;98450.00;4994752;28;20120;-71
2024/01/20 03:45:10;;;;;;;1.00;1.00;;;;;;;-4.51;82.28;98451.84;5000190;28;20133;-72
2024/01/20 03:47:37;;;;;;;1.05;1.05;;;;;;;-4.53;82.18;98451.91;4993915;28;20096;-72
2024/01/20 03:50:09;;;;;;;1.08;1.08;;;;;;;-4.54;82.25;98455.44;4979422;28;20245;-71
2024/01/20 03:52:37;;;;;;;0.15;0.15;;;;;;;-4.50;82.38;98463.94;4992669;28;20382;-72
2024/01/20 03:55:06;;;;;;;1.42;1.42;;;;;;;-4.45;82.12;98460.16;4993310;28;20050;-72
2024/01/20 03:57:33;;;;;;;0.30;0.30;;;;;;;-4.46;81.69;98455.88;4998188;28;20389;-72
2024/01/20 04:00:01;;;;;;;0.43;0.43;;;;;;;-4.46;81.89;98468.06;4997758;28;20405;-71
2024/01/20 04:02:31;;;;;;;1.63;1.63;;;;;;;-4.48;82.10;98464.72;4990230;28;20050;-72
2024/01/20 04:04:58;;;;;;;0.50;0.50;;;;;;;-4.56;82.14;98465.09;4989524;28;20432;-73
2024/01/20 04:07:27;;;;;;;1.77;1.77;;;;;;;-4.51;82.25;98465.72;4982492;28;20050;-73
2024/01/20 04:09:55;;;;;;;1.30;1.30;;;;;;;-4.60;82.77;98465.34;4997636;28;20046;-73
2024/01/20 04:12:22;;;;;;;1.23;1.23;;;;;;;-4.59;82.45;98472.25;4989760;28;20046;-72
2024/01/20 04:14:50;;;;;;;0.68;0.68;;;;;;;-4.56;82.15;98469.47;4994987;28;20114;-73
2024/01/20 04:17:17;;;;;;;1.25;1.25;;;;;;;-4.60;82.21;98471.41;4991980;28;20067;-73
2024/01/20 04:19:45;;;;;;;0.57;0.57;;;;;;;-4.66;82.66;98473.44;4999008;28;20386;-73
2024/01/20 04:22:12;;;;;;;1.33;1.33;;;;;;;-4.61;82.57;98479.28;4997705;28;20485;-73
2024/01/20 04:24:41;;;;;;;1.25;1.25;;;;;;;-4.59;82.61;98477.44;4996962;28;20081;-72
2024/01/20 04:27:09;;;;;;;1.00;1.00;;;;;;;-4.50;82.14;98480.41;5003289;28;20060;-72
2024/01/20 04:29:36;;;;;;;1.20;1.20;;;;;;;-4.52;82.02;98484.84;4992250;28;20115;-73
2024/01/20 04:32:05;;;;;;;0.88;0.88;;;;;;;-4.48;81.73;98485.56;4995092;28;20053;-73
2024/01/20 04:34:32;;;;;;;0.85;0.85;;;;;;;-4.60;82.25;98479.22;4985615;28;20060;-73
2024/01/20 04:37:00;;;;;;;1.27;1.27;;;;;;;-4.58;82.11;98476.53;4989930;28;20070;-73
2024/01/20 04:39:27;;;;;;;1.00;1.00;;;;;;;-4.50;81.56;98479.56;4973513;28;20053;-72
2024/01/20 04:41:56;;;;;;;1.20;1.20;;;;;;;-4.52;82.12;98474.44;4989892;28;20042;-73
2024/01/20 04:44:24;;;;;;;1.27;1.27;;;;;;;-4.53;81.74;98485.78;5001542;28;20050;-73
2024/01/20 04:46:52;;;;;;;1.10;1.10;;;;;;;-4.55;81.58;98491.97;4985035;28;20118;-74
2024/01/20 04:49:19;;;;;;;0.98;0.98;;;;;;;-4.55;81.66;98495.41;4995855;28;20042;-73
2024/01/20 04:51:47;;;;;;;1.27;1.27;;;;;;;-4.56;82.08;98491.13;4987835;28;20580;-73
2024/01/20 04:54:15;;;;;;;0.85;0.85;;;;;;;-4.56;82.05;98500.69;4995278;28;20042;-72
2024/01/20 04:56:42;;;;;;;0.40;0.40;;;;;;;-4.54;82.02;98502.31;4990021;28;20445;-72
2024/01/20 04:59:11;;;;;;;0.90;0.90;;;;;;;-4.48;82.11;98502.03;4993639;28;20043;-73
2024/01/20 05:01:39;;;;;;;0.82;0.82;;;;;;;-4.48;81.54;98511.59;4997750;28;20056;-73
2024/01/20 05:04:07;;;;;;;0.95;0.95;;;;;;;-4.48;81.61;98507.22;4993212;28;20042;-73
2024/01/20 05:06:35;;;;;;;1.48;1.48;;;;;;;-4.51;81.86;98515.19;4999243;28;20049;-74
2024/01/20 05:09:04;;;;;;;0.93;0.93;;;;;;;-4.54;81.84;98502.31;4991145;28;20077;-73
2024/01/20 05:11:32;;;;;;;1.10;1.10;;;;;;;-4.48;81.44;98506.38;4989757;28;20477;-73
2024/01/20 05:13:59;;;;;;;0.98;0.98;;;;;;;-4.53;81.88;98510.97;4992300;28;20042;-73
2024/01/20 05:16:28;;;;;;;1.08;1.08;;;;;;;-4.35;81.35;98509.19;4985304;28;20077;-74
2024/01/20 05:18:56;;;;;;;0.50;0.50;;;;;;;-4.50;81.32;98513.44;4993334;28;20390;-73
2024/01/20 05:21:23;;;;;;;0.95;0.95;;;;;;;-4.51;81.83;98507.38;4992447;28;20054;-73
2024/01/20 05:23:51;;;;;;;0.98;0.98;;;;;;;-4.41;81.22;98518.16;4999173;28;20048;-73
2024/01/20 05:26:19;;;;;;;1.25;1.25;;;;;;;-4.52;81.71;98512.66;4990904;28;20042;-72
2024/01/20 05:28:46;;;;;;;1.35;1.35;;;;;;;-4.56;81.35;98514.56;5000188;28;20098;-72
2024/01/20 05:31:14;;;;;;;0.95;0.95;;;;;;;-4.58;82.02;98515.59;5004306;23;20055;-72
2024/01/20 05:33:43;;;;;;;1.17;1.17;;;;;;;-4.62;81.90;98519.25;4956053;28;20043;-71
2024/01/20 05:36:12;;;;;;;2.00;1.98;;;;;;;-4.39;81.37;98526.75;4956165;28;20098;-72
2024/01/20 05:38:39;;;;;;;1.00;1.00;;;;;;;-4.48;80.98;98524.63;4961118;28;20324;-72
2024/01/20 05:41:07;;;;;;;1.10;1.10;;;;;;;-4.61;81.54;98529.59;4949188;28;20503;-72
2024/01/20 05:43:35;;;;;;;1.30;1.30;;;;;;;-4.63;81.63;98530.59;4964919;28;20042;-72
2024/01/20 05:46:05;;;;;;;1.58;1.58;;;;;;;-4.71;81.61;98527.53;4965731;28;20062;-72
2024/01/20 05:48:33;;;;;;;0.47;0.47;;;;;;;-4.75;81.85;98533.81;4953798;28;20458;-72
2024/01/20 05:51:02;;;;;;;0.95;0.95;;;;;;;-4.78;82.10;98531.38;4964106;28;20047;-72
2024/01/20 05:53:30;;;;;;;0.30;0.30;;;;;;;-4.79;82.00;98527.09;4963084;28;20451;-72
2024/01/20 05:55:57;;;;;;;0.95;0.95;;;;;;;-4.77;81.97;98531.28;4960795;28;20047;-72
2024/01/20 05:58:25;;;;;;;1.02;1.02;;;;;;;-4.76;81.94;98532.97;4955154;28;20054;-72
2024/01/20 06:00:53;;;;;;;1.08;1.08;;;;;;;-4.78;81.62;98536.59;4952363;28;20073;-72
2024/01/20 06:03:21;;;;;;;1.50;1.40;;;;;;;-4.78;81.60;98532.22;4952272;28;20039;-72
2024/01/20 06:05:49;;;;;;;1.50;1.50;;;;;;;-4.88;82.34;98547.41;4960103;28;20036;-72
2024/01/20 06:08:18;;;;;;;1.13;1.13;;;;;;;-4.89;82.59;98547.53;4961567;28;20082;-74
2024/01/20 06:10:45;;;;;;;1.08;1.08;;;;;;;-4.93;82.65;98546.81;4956373;28;20039;-72
2024/01/20 06:13:13;;;;;;;0.98;0.98;;;;;;;-4.88;82.17;98549.22;4957655;28;20145;-72
2024/01/20 06:15:41;;;;;;;1.20;1.20;;;;;;;-4.94;82.19;98552.94;4956270;28;20039;-72
2024/01/20 06:18:08;;;;;;;1.15;1.15;;;;;;;-4.92;82.93;98553.72;4961867;28;20070;-72
2024/01/20 06:20:36;;;;;;;1.00;1.00;;;;;;;-5.03;82.82;98556.00;4962624;28;20093;-71
2024/01/20 06:23:04;;;;;;;0.95;0.95;;;;;;;-5.00;82.79;98558.47;4954900;28;20082;-71
2024/01/20 06:25:32;;;;;;;0.30;0.30;;;;;;;-5.00;83.08;98563.66;4958113;28;20375;-71
2024/01/20 06:28:00;;;;;;;0.90;0.90;;;;;;;-5.01;82.77;98564.56;4955746;28;20044;-71
2024/01/20 06:30:28;;;;;;;0.90;0.90;;;;;;;-5.01;82.62;98561.13;4963696;28;20043;-71
2024/01/20 06:32:56;;;;;;;1.05;1.05;;;;;;;-4.97;82.62;98552.25;4953916;28;20035;-71
2024/01/20 06:35:23;;;;;;;1.02;1.02;;;;;;;-5.09;82.89;98553.69;4955947;28;20074;-71
2024/01/20 06:37:51;;;;;;;0.95;0.95;;;;;;;-5.09;82.68;98555.47;4963901;28;20031;-71
2024/01/20 06:40:18;;;;;;;1.35;1.35;;;;;;;-5.03;82.43;98560.34;4954803;28;20047;-70
2024/01/20 06:42:47;;;;;;;0.30;0.30;;;;;;;-5.09;82.80;98560.66;4959944;28;20446;-70
2024/01/20 06:45:15;;;;;;;1.73;1.73;;;;;;;-5.03;82.23;98562.97;4951379;28;20614;-70
2024/01/20 06:47:43;;;;;;;0.88;0.88;;;;;;;-5.12;82.99;98561.66;4952532;28;20517;-70
2024/01/20 06:50:12;;;;;;;1.08;1.08;;;;;;;-5.17;83.11;98580.06;4956174;28;20047;-70
2024/01/20 06:52:40;;;;;;;1.00;1.00;;;;;;;-5.23;83.01;98584.72;4952913;28;20048;-70
2024/01/20 06:55:10;;;;;;;1.08;1.08;;;;;;;-5.25;83.32;98570.94;4952645;28;20559;-71
2024/01/20 06:57:37;;;;;;;1.08;1.08;;;;;;;-5.26;82.92;98580.50;4955011;28;20047;-71
2024/01/20 07:00:08;;;;;;;1.00;1.00;;;;;;;-5.30;82.98;98584.19;4953634;28;20317;-70
2024/01/20 07:02:36;;;;;;;1.25;1.25;;;;;;;-5.27;82.91;98590.97;4951753;28;20502;-71
2024/01/20 07:05:04;;;;;;;0.85;0.85;;;;;;;-5.27;83.41;98594.41;4950110;28;20295;-70
2024/01/20 07:07:32;;;;;;;1.02;1.02;;;;;;;-5.27;83.03;98594.41;4957375;28;20039;-71
2024/01/20 07:10:00;;;;;;;1.20;1.20;;;;;;;-5.24;83.08;98594.28;4941471;28;20039;-71
2024/01/20 07:12:28;;;;;;;1.33;1.33;;;;;;;-5.24;83.14;98598.66;4949144;28;20050;-71
2024/01/20 07:14:57;;;;;;;1.15;1.15;;;;;;;-5.27;83.48;98610.03;4952814;28;20051;-71
2024/01/20 07:17:26;;;;;;;1.08;1.08;;;;;;;-5.28;82.96;98599.69;4949067;28;20121;-72
2024/01/20 07:19:53;;;;;;;1.30;1.30;;;;;;;-5.26;83.56;98606.53;4949679;28;20035;-70
2024/01/20 07:22:21;;;;;;;0.43;0.43;;;;;;;-5.24;83.27;98604.69;4934166;29;20405;-69
2024/01/20 07:24:49;;;;;;;0.50;0.50;;;;;;;-5.17;83.06;98606.09;4951077;28;20410;-69
2024/01/20 07:27:16;;;;;;;1.20;1.20;;;;;;;-5.15;82.87;98608.63;4956412;28;20055;-70
2024/01/20 07:29:44;;;;;;;1.08;1.08;;;;;;;-5.09;82.99;98618.75;4950977;28;20043;-69
2024/01/20 07:32:11;;;;;;;0.20;0.20;;;;;;;-5.10;82.94;98624.03;4946729;28;20419;-69
2024/01/20 07:34:40;;;;;;;1.30;1.30;;;;;;;-5.02;82.40;98624.50;4945979;28;20054;-69
2024/01/20 07:37:08;;;;;;;1.48;1.48;;;;;;;-5.08;82.49;98630.81;4947228;28;20056;-70
2024/01/20 07:39:35;;;;;;;0.98;0.98;;;;;;;-5.02;82.51;98627.09;4952012;28;20043;-70
2024/01/20 07:42:04;;;;;;;1.08;1.08;;;;;;;-4.96;82.14;98626.78;4950555;28;20043;-70
2024/01/20 07:44:32;;;;;;;1.15;1.15;;;;;;;-5.03;82.37;98638.41;4957072;28;20098;-70
2024/01/20 07:47:02;;;;;;;0.95;0.95;;;;;;;-5.05;82.62;98630.69;4956425;28;20054;-70
2024/01/20 07:49:29;;;;;;;1.15;1.15;;;;;;;-5.04;82.24;98631.53;4953424;28;20031;-70
2024/01/20 07:51:59;;;;;;;0.40;0.40;;;;;;;-5.04;82.50;98636.72;4951709;28;20495;-70
2024/01/20 07:54:26;;;;;;;1.55;1.55;;;;;;;-5.00;82.28;98652.13;4953480;28;20035;-70
2024/01/20 07:56:54;;;;;;;0.95;0.95;;;;;;;-4.99;82.72;98640.81;4953483;28;20127;-70
2024/01/20 07:59:21;;;;;;;1.08;1.08;;;;;;;-4.93;82.26;98655.28;4953068;28;20126;-70
2024/01/20 08:01:49;;;;;;;0.85;0.85;;;;;;;-4.90;82.25;98660.34;4944125;28;20529;-70
2024/01/20 08:04:17;;;;;;;1.52;1.52;;;;;;;-4.86;82.46;98657.50;4963094;28;20051;-69
2024/01/20 08:06:45;;;;;;;1.13;1.13;;;;;;;-4.84;82.58;98658.28;4962186;28;20146;-70
2024/01/20 08:09:14;;;;;;;1.05;1.05;;;;;;;-4.78;82.10;98662.38;4963838;28;20061;-70
2024/01/20 08:11:42;;;;;;;1.00;1.00;;;;;;;-4.74;82.19;98652.66;4946103;28;20127;-70
2024/01/20 08:14:10;;;;;;;0.90;0.90;;;;;;;-4.73;82.06;98652.56;4947618;28;20046;-70
2024/01/20 08:16:37;;;;;;;0.20;0.20;;;;;;;-4.72;82.41;98651.66;4952680;28;20387;-70
2024/01/20 08:19:05;;;;;;;1.25;1.25;;;;;;;-4.66;82.19;98655.72;4961351;28;20043;-70
2024/01/20 08:21:33;;;;;;;1.00;1.00;;;;;;;-4.60;81.81;98658.03;4951015;28;20150;-70
2024/01/20 08:24:01;;;;;;;0.82;0.82;;;;;;;-4.60;81.65;98663.25;4962861;28;20098;-70
2024/01/20 08:26:32;;;;;;;1.38;1.38;;;;;;;-4.52;82.17;98666.31;4950432;28;20035;-70
2024/01/20 08:29:00;;;;;;;1.38;1.38;;;;;;;-4.42;81.65;98659.72;4951486;28;20062;-70
2024/01/20 08:31:27;;;;;;;0.32;0.32;;;;;;;-4.39;81.40;98676.97;4947324;28;20438;-72
2024/01/20 08:33:55;;;;;;;1.10;1.10;;;;;;;-4.31;81.28;98680.03;4952039;28;20051;-71
2024/01/20 08:36:23;;;;;;;1.08;1.08;;;;;;;-4.21;81.69;98676.91;4953459;28;20066;-71
2024/01/20 08:38:50;;;;;;;0.95;0.95;;;;;;;-4.25;81.06;98677.97;4953577;28;20102;-71
2024/01/20 08:41:18;;;;;;;1.63;1.63;;;;;;;-4.22;81.63;98669.16;4943209;28;20490;-71
2024/01/20 08:43:48;;;;;;;1.70;1.70;;;;;;;-4.22;81.11;98680.44;4950132;28;20050;-71
2024/01/20 08:46:15;;;;;;;1.15;1.15;;;;;;;-4.21;81.28;98674.31;4956552;28;20129;-70
2024/01/20 08:48:43;;;;;;;1.58;1.58;;;;;;;-4.12;81.52;98675.59;4941147;28;20043;-71
2024/01/20 08:51:11;;;;;;;1.35;1.30;;;;;;;-4.08;81.01;98687.56;4950477;28;20047;-71
2024/01/20 08:53:39;;;;;;;1.25;1.25;;;;;;;-4.10;80.29;98690.25;4953985;28;20046;-70
2024/01/20 08:56:07;;;;;;;1.05;1.05;;;;;;;-4.13;80.38;98685.19;4950638;28;20127;-70
2024/01/20 08:58:35;;;;;;;1.15;1.15;;;;;;;-4.09;80.77;98704.97;4950869;28;20047;-70
2024/01/20 09:01:04;;;;;;;0.93;0.93;;;;;;;-4.04;80.31;98690.84;4949212;28;20051;-70
2024/01/20 09:03:31;;;;;;;1.20;1.20;;;;;;;-3.97;79.75;98700.91;4957324;28;20134;-70
2024/01/20 09:05:59;;;;;;;0.30;0.30;;;;;;;-4.04;79.58;98701.28;4953053;28;20483;-70
2024/01/20 09:08:27;;;;;;;1.05;1.05;;;;;;;-3.96;79.46;98702.59;4949174;28;20133;-70
2024/01/20 09:10:54;;;;;;;1.20;1.20;;;;;;;-3.93;79.53;98717.22;4948934;28;20049;-70
2024/01/20 09:13:22;;;;;;;1.45;1.45;;;;;;;-3.87;79.46;98722.16;4950847;28;20046;-70
2024/01/20 09:15:49;;;;;;;2.10;2.10;;;;;;;-3.80;79.09;98718.28;4943372;28;20039;-70
2024/01/20 09:18:18;;;;;;;1.20;1.20;;;;;;;-3.81;79.84;98733.09;4963454;28;20075;-70
2024/01/20 09:20:49;;;;;;;1.10;1.10;;;;;;;-3.78;79.15;98729.50;4951264;28;20049;-70
2024/01/20 09:23:16;;;;;;;0.40;0.40;;;;;;;-3.69;79.82;98736.84;4959320;28;20470;-70
2024/01/20 09:25:44;;;;;;;1.40;1.40;;;;;;;-3.64;79.29;98736.63;4936475;29;20047;-70
2024/01/20 09:28:12;;;;;;;1.02;1.02;;;;;;;-3.59;79.03;98724.19;4959904;28;20039;-70
2024/01/20 09:30:39;;;;;;;1.10;1.10;;;;;;;-3.63;79.03;98726.09;4950711;28;20680;-70
2024/01/20 09:33:07;;;;;;;1.05;1.05;;;;;;;-3.67;78.63;98727.19;4956195;28;20062;-70
2024/01/20 09:35:37;;;;;;;0.98;0.98;;;;;;;-3.57;78.86;98738.84;4956788;28;20051;-70
2024/01/20 09:38:05;;;;;;;0.68;0.68;;;;;;;-3.60;78.62;98723.34;4952338;28;20134;-70
2024/01/20 09:40:35;;;;;;;1.23;1.23;;;;;;;-3.52;78.76;98733.38;4951889;28;20097;-70
2024/01/20 09:43:03;;;;;;;1.08;1.08;;;;;;;-3.43;78.25;98735.53;4947370;28;20058;-70
2024/01/20 09:45:31;;;;;;;1.38;1.38;;;;;;;-3.52;78.32;98726.38;4951517;28;20039;-70
2024/01/20 09:47:58;;;;;;;1.30;1.30;;;;;;;-3.48;78.38;98733.16;4962725;28;20054;-71
2024/01/20 09:50:26;;;;;;;0.90;0.90;;;;;;;-3.37;78.01;98743.03;4953952;28;20055;-69
2024/01/20 09:52:58;;;;;;;1.38;1.38;;;;;;;-3.37;77.94;98725.59;4946610;28;20054;-71
2024/01/20 09:55:27;;;;;;;1.38;1.38;;;;;;;-3.35;78.15;98734.19;4960864;28;20193;-71
2024/01/20 09:57:56;;;;;;;1.00;1.00;;;;;;;-3.25;77.73;98736.31;4958833;28;20051;-71
2024/01/20 10:00:27;;;;;;;0.95;0.95;;;;;;;-3.21;77.22;98727.38;4952763;28;20129;-70
2024/01/20 10:03:01;;;;;;;1.05;1.05;;;;;;;-3.19;77.25;98738.59;4959015;28;20054;-70
2024/01/20 10:05:29;;;;;;;1.33;1.33;;;;;;;-3.34;77.07;98715.00;4957434;28;20121;-70
2024/01/20 10:07:58;;;;;;;0.55;0.55;;;;;;;-3.32;77.13;98736.63;4961050;28;20411;-72
2024/01/20 10:10:26;;;;;;;1.30;1.30;;;;;;;-3.32;76.90;98727.94;4967416;28;20065;-70
2024/01/20 10:12:55;;;;;;;1.23;1.23;;;;;;;-3.31;76.69;98716.59;4953346;28;20043;-70
2024/01/20 10:15:25;;;;;;;1.00;1.00;;;;;;;-3.34;76.60;98732.44;4967489;28;20053;-70
2024/01/20 10:17:55;;;;;;;0.40;0.40;;;;;;;-3.23;77.25;98737.09;4962863;28;20413;-70
2024/01/20 10:20:24;;;;;;;1.17;1.17;;;;;;;-3.22;76.68;98734.41;4954044;28;20085;-70
2024/01/20 10:22:52;;;;;;;1.20;1.20;;;;;;;-3.14;76.38;98740.06;4960208;28;20053;-71
2024/01/20 10:25:23;;;;;;;1.50;1.50;;;;;;;-3.14;76.45;98734.84;4948356;28;20081;-71
2024/01/20 10:27:51;;;;;;;0.40;0.40;;;;;;;-3.15;75.63;98727.94;4960265;28;20470;-70
2024/01/20 10:30:20;;;;;;;1.33;1.33;;;;;;;-3.07;76.22;98732.72;4952400;28;20051;-71
2024/01/20 10:32:49;;;;;;;0.30;0.30;;;;;;;-2.99;76.29;98727.94;4964607;28;20410;-70
2024/01/20 10:35:35;;;;;;;1.08;1.08;;;;;;;-3.08;75.83;98731.88;4934188;29;20106;-71
2024/01/20 10:38:06;;;;;;;1.20;1.20;;;;;;;-2.97;76.00;98734.78;4954552;28;20175;-70
2024/01/20 10:40:37;;;;;;;0.93;0.93;;;;;;;-3.02;75.78;98739.41;4947484;28;20043;-70
2024/01/20 10:43:12;;;;;;;1.08;1.08;;;;;;;-2.96;75.81;98739.06;4940943;28;20042;-70
2024/01/20 10:45:48;;;;;;;1.23;1.23;;;;;;;-2.95;75.65;98739.91;4950052;28;20049;-71
2024/01/20 10:48:20;;;;;;;1.10;1.10;;;;;;;-2.82;75.47;98735.72;4950578;28;20054;-70
2024/01/20 10:50:59;;;;;;;1.67;1.67;;;;;;;-2.80;75.75;98733.03;4948506;28;20102;-70
2024/01/20 10:53:27;;;;;;;0.88;0.88;;;;;;;-2.78;75.02;98729.38;4957816;28;20050;-70
2024/01/20 10:56:02;;;;;;;1.17;1.17;;;;;;;-2.71;75.11;98738.59;4938247;29;20057;-71
2024/01/20 10:58:33;;;;;;;0.98;0.98;;;;;;;-2.75;74.39;98731.84;4951093;28;20067;-70
2024/01/20 11:01:01;;;;;;;1.30;1.30;;;;;;;-2.71;73.68;98735.97;4951373;28;20530;-70
2024/01/20 11:03:29;;;;;;;1.13;1.13;;;;;;;-2.69;73.80;98734.09;4957226;28;20086;-70
2024/01/20 11:05:57;;;;;;;1.05;1.05;;;;;;;-2.55;74.06;98732.50;4960044;28;20047;-71
2024/01/20 11:08:26;;;;;;;1.10;1.10;;;;;;;-2.59;73.46;98724.84;4956388;28;20058;-71
2024/01/20 11:10:55;;;;;;;1.52;1.52;;;;;;;-2.61;73.03;98712.81;4930115;29;20047;-70
2024/01/20 11:13:26;;;;;;;1.30;1.30;;;;;;;-2.59;73.50;98732.66;4953964;28;20070;-70
2024/01/20 11:15:53;;;;;;;0.90;0.90;;;;;;;-2.54;72.88;98728.97;4949379;28;20051;-70
2024/01/20 11:18:22;;;;;;;1.88;1.88;;;;;;;-2.56;72.85;98730.81;4956485;28;20047;-70
2024/01/20 11:21:00;;;;;;;1.15;1.15;;;;;;;-2.53;73.03;98731.50;4931356;29;20036;-70
2024/01/20 11:23:28;;;;;;;0.98;0.98;;;;;;;-2.50;72.68;98728.72;4951956;28;20317;-71
2024/01/20 11:25:56;;;;;;;1.05;1.05;;;;;;;-2.44;72.74;98727.53;4949411;28;20051;-71
2024/01/20 11:28:27;;;;;;;0.77;0.77;;;;;;;-2.36;72.96;98720.09;4964564;28;20122;-71
2024/01/20 11:30:54;;;;;;;0.88;0.88;;;;;;;-2.43;72.49;98710.94;4978601;23;20161;-73
2024/01/20 11:33:22;;;;;;;1.05;1.05;;;;;;;-2.31;72.65;98716.31;4974288;28;20065;-74
2024/01/20 11:35:51;;;;;;;1.08;1.08;;;;;;;-2.31;72.11;98733.75;4969893;28;20117;-73
2024/01/20 11:38:19;;;;;;;0.30;0.30;;;;;;;-2.28;72.41;98718.72;4975210;28;20608;-73